Time;durP1;ratioP1;P1;durP2;ratioP2;P2;SDS_P1;SDS_P2;PMS_P1;PMS_P2;Temp;Humidity;BMP_temperature;BMP_pressure;BME280_temperature;BME280_humidity;BME280_pressure;Samples;Min_cycle;Max_cycle;Signal;HPM_P1;HPM_P2
2022/04/25 00:00:43;;;;;;;;;;;8.70;99.90;;;;;;5055863;28;20008;-71
2022/04/25 00:03:08;;;;;;;;;;;8.90;99.90;;;;;;5055720;28;20291;-71
2022/04/25 00:05:34;;;;;;;;;;;8.60;99.90;;;;;;5054856;28;20123;-70
2022/04/25 00:07:59;;;;;;;;;;;8.60;99.90;;;;;;5071305;28;19925;-71
2022/04/25 00:10:25;;;;;;;;;;;8.60;99.90;;;;;;5054710;28;19987;-69
2022/04/25 00:12:50;;;;;;;;;;;8.50;99.90;;;;;;5055785;28;19925;-68
2022/04/25 00:15:16;;;;;;;;;;;8.50;99.90;;;;;;5055663;28;19979;-69
2022/04/25 00:17:41;;;;;;;;;;;8.40;99.90;;;;;;5055500;28;20395;-69
2022/04/25 00:20:08;;;;;;;;;;;8.60;99.90;;;;;;5054530;28;19925;-71
2022/04/25 00:22:34;;;;;;;;;;;8.40;99.90;;;;;;5054387;28;20402;-71
2022/04/25 00:25:00;;;;;;;;;;;8.30;99.90;;;;;;5055635;28;20019;-71
2022/04/25 00:27:28;;;;;;;;;;;8.30;99.90;;;;;;5055539;28;19947;-69
2022/04/25 00:29:54;;;;;;;;;;;8.50;99.90;;;;;;5055407;28;19925;-70
2022/04/25 00:32:19;;;;;;;;;;;8.80;99.90;;;;;;5055388;28;19947;-70
2022/04/25 00:34:45;;;;;;;;;;;8.20;99.90;;;;;;5054616;28;19929;-69
2022/04/25 00:37:10;;;;;;;;;;;8.20;99.90;;;;;;5055405;28;19925;-69
2022/04/25 00:39:36;;;;;;;;;;;8.10;99.90;;;;;;5055349;28;20399;-68
2022/04/25 00:42:02;;;;;;;;;;;8.10;99.90;;;;;;5055533;28;20395;-69
2022/04/25 00:44:27;;;;;;;;;;;8.10;99.90;;;;;;5054511;28;19924;-69
2022/04/25 00:46:53;;;;;;;;;;;8.00;99.90;;;;;;5055334;28;20023;-68
2022/04/25 00:49:19;;;;;;;;;;;8.40;99.90;;;;;;5055120;28;19929;-70
2022/04/25 00:51:46;;;;;;;;;;;8.70;99.90;;;;;;5054208;28;20027;-69
2022/04/25 00:54:12;;;;;;;;;;;8.00;99.90;;;;;;5055271;28;20066;-70
2022/04/25 00:56:38;;;;;;;;;;;8.00;99.90;;;;;;5055117;28;20431;-68
2022/04/25 00:59:04;;;;;;;;;;;7.90;99.90;;;;;;5054671;28;19970;-70
2022/04/25 01:01:31;;;;;;;;;;;7.90;99.90;;;;;;5054992;28;20292;-70
2022/04/25 01:03:57;;;;;;;;;;;7.90;99.90;;;;;;5054745;28;20364;-70
2022/04/25 01:06:22;;;;;;;;;;;7.90;99.90;;;;;;5054949;28;20019;-70
2022/04/25 01:08:50;;;;;;;;;;;7.80;99.90;;;;;;5054857;28;20019;-69
2022/04/25 01:11:16;;;;;;;;;;;7.80;99.90;;;;;;5054944;28;19932;-69
2022/04/25 01:13:43;;;;;;;;;;;8.30;99.90;;;;;;5054875;28;19925;-70
2022/04/25 01:16:08;;;;;;;;;;;7.80;99.90;;;;;;5054775;28;19932;-68
2022/04/25 01:18:34;;;;;;;;;;;9.20;99.90;;;;;;5054624;28;19924;-69
2022/04/25 01:21:00;;;;;;;;;;;7.70;99.90;;;;;;5053683;28;19931;-71
2022/04/25 01:28:54;;;;;;;;;;;7.90;99.90;;;;;;5054569;28;19987;-70
2022/04/25 01:31:20;;;;;;;;;;;7.70;99.90;;;;;;5053586;28;19964;-71
2022/04/25 01:33:46;;;;;;;;;;;7.70;99.90;;;;;;5054305;28;19929;-70
2022/04/25 01:36:12;;;;;;;;;;;7.60;99.90;;;;;;5054160;28;20388;-70
2022/04/25 01:38:37;;;;;;;;;;;7.80;99.90;;;;;;5054437;28;20327;-70
2022/04/25 01:41:03;;;;;;;;;;;6.80;99.90;;;;;;5054462;28;19979;-68
2022/04/25 01:43:29;;;;;;;;;;;7.50;99.90;;;;;;5053400;28;20310;-69
2022/04/25 01:45:54;;;;;;;;;;;8.10;99.90;;;;;;5053314;28;19931;-68
2022/04/25 01:48:21;;;;;;;;;;;8.60;99.90;;;;;;5053029;28;19925;-69
2022/04/25 01:50:49;;;;;;;;;;;8.00;99.90;;;;;;5054056;28;19924;-71
2022/04/25 01:53:15;;;;;;;;;;;7.50;99.90;;;;;;5054170;28;20097;-70
2022/04/25 01:55:41;;;;;;;;;;;7.50;99.90;;;;;;5054127;28;20028;-69
2022/04/25 01:58:06;;;;;;;;;;;8.10;99.90;;;;;;5053986;28;19932;-69
2022/04/25 02:00:33;;;;;;;;;;;8.20;99.90;;;;;;5052514;28;20475;-70
2022/04/25 02:02:58;;;;;;;;;;;8.10;99.90;;;;;;5053822;28;20070;-70
2022/04/25 02:05:24;;;;;;;;;;;7.50;99.90;;;;;;5053801;28;19978;-69
2022/04/25 02:07:49;;;;;;;;;;;7.40;99.90;;;;;;5053851;28;19936;-69
2022/04/25 02:10:15;;;;;;;;;;;7.40;99.90;;;;;;5052628;28;20342;-69
2022/04/25 02:12:42;;;;;;;;;;;7.50;99.90;;;;;;5053517;28;20358;-71
2022/04/25 02:15:12;;;;;;;;;;;8.90;99.90;;;;;;5053790;28;20297;-69
2022/04/25 02:17:38;;;;;;;;;;;7.50;99.90;;;;;;5053611;28;20020;-69
2022/04/25 02:20:03;;;;;;;;;;;7.50;99.90;;;;;;5053574;28;20388;-70
2022/04/25 02:22:29;;;;;;;;;;;7.50;99.90;;;;;;5053580;28;19932;-68
2022/04/25 02:24:55;;;;;;;;;;;7.50;99.90;;;;;;5053792;28;19928;-70
2022/04/25 02:27:21;;;;;;;;;;;7.80;99.90;;;;;;5053718;28;20008;-70
2022/04/25 02:29:48;;;;;;;;;;;7.40;99.90;;;;;;5053604;28;20043;-71
2022/04/25 02:32:13;;;;;;;;;;;7.40;99.90;;;;;;5053584;28;19932;-71
2022/04/25 02:34:40;;;;;;;;;;;7.80;99.90;;;;;;5053432;28;19925;-71
2022/04/25 02:37:06;;;;;;;;;;;7.40;99.90;;;;;;5053345;28;19929;-68
2022/04/25 02:39:32;;;;;;;;;;;7.70;99.90;;;;;;5053699;28;20054;-69
2022/04/25 02:41:57;;;;;;;;;;;7.40;99.90;;;;;;5052622;28;19971;-68
2022/04/25 02:44:23;;;;;;;;;;;7.40;99.90;;;;;;5053661;28;19925;-70
2022/04/25 02:46:48;;;;;;;;;;;8.30;99.90;;;;;;5053408;28;20016;-69
2022/04/25 02:49:14;;;;;;;;;;;7.40;99.90;;;;;;5053377;28;20071;-70
2022/04/25 02:51:39;;;;;;;;;;;8.60;99.90;;;;;;5053324;28;20372;-69
2022/04/25 02:54:05;;;;;;;;;;;8.30;99.90;;;;;;5053380;28;19936;-68
2022/04/25 02:56:31;;;;;;;;;;;7.40;99.90;;;;;;5053456;28;20394;-70
2022/04/25 02:58:56;;;;;;;;;;;7.40;99.90;;;;;;5052155;28;19931;-68
2022/04/25 03:01:22;;;;;;;;;;;9.10;99.90;;;;;;5053235;28;19925;-69
2022/04/25 03:03:47;;;;;;;;;;;7.40;99.90;;;;;;5053192;28;19925;-70
2022/04/25 03:06:13;;;;;;;;;;;7.40;99.90;;;;;;5052207;28;19931;-69
2022/04/25 03:08:39;;;;;;;;;;;7.40;99.90;;;;;;5053068;28;19925;-70
2022/04/25 03:11:06;;;;;;;;;;;8.40;99.90;;;;;;5053357;28;20388;-70
2022/04/25 03:13:34;;;;;;;;;;;7.40;99.90;;;;;;5053256;28;20394;-70
2022/04/25 03:15:59;;;;;;;;;;;7.40;99.90;;;;;;5053216;28;20008;-70
2022/04/25 03:18:25;;;;;;;;;;;7.40;99.90;;;;;;5053012;28;20020;-69
2022/04/25 03:20:51;;;;;;;;;;;7.50;99.90;;;;;;5053089;28;19925;-69
2022/04/25 03:23:20;;;;;;;;;;;7.40;99.90;;;;;;5054588;28;19925;-68
2022/04/25 03:25:46;;;;;;;;;;;7.40;99.90;;;;;;5056944;28;19990;-70
2022/04/25 03:28:12;;;;;;;;;;;7.60;99.90;;;;;;5056917;28;20431;-70
2022/04/25 03:30:37;;;;;;;;;;;7.40;99.90;;;;;;5055524;28;20300;-70
2022/04/25 03:33:06;;;;;;;;;;;7.40;99.90;;;;;;5055782;28;19931;-71
2022/04/25 03:35:32;;;;;;;;;;;7.40;99.90;;;;;;5056611;28;19947;-69
2022/04/25 03:37:58;;;;;;;;;;;7.50;99.90;;;;;;5056395;28;20291;-69
2022/04/25 03:40:24;;;;;;;;;;;7.80;99.90;;;;;;5055843;28;19925;-69
2022/04/25 03:42:49;;;;;;;;;;;8.30;99.90;;;;;;5056675;28;19925;-69
2022/04/25 03:45:16;;;;;;;;;;;7.50;99.90;;;;;;5056579;28;20272;-69
2022/04/25 03:47:42;;;;;;;;;;;7.50;99.90;;;;;;5056341;28;20390;-70
2022/04/25 03:50:09;;;;;;;;;;;8.70;99.90;;;;;;5056464;28;20350;-69
2022/04/25 03:52:34;;;;;;;;;;;7.50;99.90;;;;;;5055350;28;19932;-68
2022/04/25 03:57:44;;;;;;;;;;;7.50;99.90;;;;;;5056317;28;19979;-71
2022/04/25 04:00:11;;;;;;;;;;;7.40;99.90;;;;;;5054830;28;19925;-69
2022/04/25 04:02:36;;;;;;;;;;;7.40;99.90;;;;;;5056117;28;19932;-68
2022/04/25 04:05:02;;;;;;;;;;;7.40;99.90;;;;;;5056085;28;19924;-70
2022/04/25 04:07:28;;;;;;;;;;;7.40;99.90;;;;;;5055920;28;19947;-69
2022/04/25 04:09:53;;;;;;;;;;;7.40;99.90;;;;;;5056183;28;19925;-70
2022/04/25 04:12:20;;;;;;;;;;;8.30;99.90;;;;;;5088474;28;19932;-69
2022/04/25 04:14:46;;;;;;;;;;;6.90;99.90;;;;;;5056003;28;19982;-69
2022/04/25 04:17:11;;;;;;;;;;;7.40;99.90;;;;;;5055894;28;19929;-72
2022/04/25 04:19:38;;;;;;;;;;;7.40;99.90;;;;;;5055756;28;19924;-69
2022/04/25 04:22:04;;;;;;;;;;;7.40;99.90;;;;;;5055649;28;19925;-69
2022/04/25 04:24:34;;;;;;;;;;;7.40;99.90;;;;;;5055857;28;19928;-70
2022/04/25 04:27:04;;;;;;;;;;;8.00;99.90;;;;;;5054941;28;19925;-69
2022/04/25 04:29:34;;;;;;;;;;;8.30;99.90;;;;;;5054731;28;19986;-69
2022/04/25 04:32:01;;;;;;;;;;;7.40;99.90;;;;;;5055628;28;19931;-70
2022/04/25 04:34:26;;;;;;;;;;;7.40;99.90;;;;;;5054517;28;19978;-69
2022/04/25 04:36:52;;;;;;;;;;;7.70;99.90;;;;;;5055334;28;19925;-68
2022/04/25 04:39:18;;;;;;;;;;;7.40;99.90;;;;;;5055577;28;19931;-68
2022/04/25 04:41:44;;;;;;;;;;;6.00;99.90;;;;;;5055528;28;19931;-70
2022/04/25 04:44:10;;;;;;;;;;;7.40;99.90;;;;;;5055431;28;19932;-69
2022/04/25 04:46:35;;;;;;;;;;;7.80;99.90;;;;;;5054394;28;19936;-69
2022/04/25 04:49:01;;;;;;;;;;;7.40;99.90;;;;;;5037412;28;19925;-69
2022/04/25 04:51:26;;;;;;;;;;;8.20;99.90;;;;;;5055180;28;20063;-70
2022/04/25 04:53:52;;;;;;;;;;;7.40;99.90;;;;;;5055363;28;19932;-69
2022/04/25 04:56:17;;;;;;;;;;;7.40;99.90;;;;;;5054966;28;20063;-70
2022/04/25 04:58:43;;;;;;;;;;;7.40;99.90;;;;;;5055099;28;19925;-69
2022/04/25 05:01:09;;;;;;;;;;;8.60;99.90;;;;;;5055052;28;20340;-71
2022/04/25 05:03:34;;;;;;;;;;;7.40;99.90;;;;;;5054911;28;19924;-70
2022/04/25 05:06:00;;;;;;;;;;;7.50;99.90;;;;;;5053791;28;19924;-69
2022/04/25 05:08:26;;;;;;;;;;;7.70;99.90;;;;;;5054811;28;20024;-70
2022/04/25 05:10:53;;;;;;;;;;;7.50;99.90;;;;;;5054124;28;19931;-69
2022/04/25 05:13:20;;;;;;;;;;;7.50;99.90;;;;;;5054883;28;20023;-69
2022/04/25 05:15:46;;;;;;;;;;;8.20;99.90;;;;;;5053622;28;19928;-70
2022/04/25 05:18:12;;;;;;;;;;;8.20;99.90;;;;;;5053328;28;19931;-70
2022/04/25 05:20:38;;;;;;;;;;;7.60;99.90;;;;;;5054624;28;20339;-71
2022/04/25 05:23:03;;;;;;;;;;;7.60;99.90;;;;;;5053450;28;19925;-70
2022/04/25 05:25:29;;;;;;;;;;;7.50;99.90;;;;;;5054735;28;19925;-68
2022/04/25 05:27:55;;;;;;;;;;;7.60;99.90;;;;;;5053748;28;20399;-70
2022/04/25 05:30:21;;;;;;;;;;;5.90;99.90;;;;;;5054617;28;20392;-70
2022/04/25 05:32:48;;;;;;;;;;;7.60;99.90;;;;;;5054264;28;20291;-70
2022/04/25 05:35:14;;;;;;;;;;;7.60;99.90;;;;;;5054425;28;19932;-71
2022/04/25 05:37:40;;;;;;;;;;;7.80;99.90;;;;;;5054147;28;20015;-71
2022/04/25 05:40:06;;;;;;;;;;;7.70;99.90;;;;;;5053571;28;20021;-67
2022/04/25 05:42:32;;;;;;;;;;;7.60;99.90;;;;;;5054434;28;19925;-70
2022/04/25 05:44:58;;;;;;;;;;;7.70;99.90;;;;;;5054205;28;19947;-69
2022/04/25 05:47:24;;;;;;;;;;;7.70;99.90;;;;;;5053181;28;19925;-72
2022/04/25 05:52:34;;;;;;;;;;;7.70;99.90;;;;;;5054292;28;20023;-69
2022/04/25 05:54:59;;;;;;;;;;;7.70;99.90;;;;;;5054314;28;19980;-70
2022/04/25 05:57:25;;;;;;;;;;;9.20;99.90;;;;;;5052938;28;19929;-69
2022/04/25 05:59:50;;;;;;;;;;;7.70;99.90;;;;;;5053680;28;19999;-70
2022/04/25 06:02:17;;;;;;;;;;;7.60;99.90;;;;;;5052723;28;19925;-69
2022/04/25 06:04:43;;;;;;;;;;;7.80;99.90;;;;;;5053766;28;19924;-71
2022/04/25 06:07:08;;;;;;;;;;;7.90;99.90;;;;;;5052698;28;20333;-70
2022/04/25 06:09:34;;;;;;;;;;;7.60;99.90;;;;;;5053885;28;19932;-69
2022/04/25 06:12:00;;;;;;;;;;;8.20;99.90;;;;;;5053907;28;19925;-68
2022/04/25 06:14:26;;;;;;;;;;;7.80;99.90;;;;;;5052943;28;20019;-71
2022/04/25 06:16:51;;;;;;;;;;;7.80;99.90;;;;;;5053682;28;20364;-71
2022/04/25 06:19:17;;;;;;;;;;;8.00;99.90;;;;;;5052717;28;19925;-69
2022/04/25 06:21:42;;;;;;;;;;;7.50;99.90;;;;;;5053997;28;19932;-70
2022/04/25 06:24:08;;;;;;;;;;;8.40;99.90;;;;;;5053573;28;19929;-69
2022/04/25 06:26:34;;;;;;;;;;;7.50;99.90;;;;;;5053674;28;20288;-70
2022/04/25 06:29:00;;;;;;;;;;;7.80;99.90;;;;;;5052186;28;20303;-71
2022/04/25 06:31:26;;;;;;;;;;;7.40;99.90;;;;;;5040747;28;20023;-69
2022/04/25 06:33:51;;;;;;;;;;;7.50;99.90;;;;;;5073438;28;20460;-72
2022/04/25 06:36:17;;;;;;;;;;;7.50;99.90;;;;;;5071866;28;19981;-71
2022/04/25 06:38:42;;;;;;;;;;;7.50;99.90;;;;;;5065582;28;19925;-71
2022/04/25 06:41:08;;;;;;;;;;;7.50;99.90;;;;;;5059614;28;20018;-70
2022/04/25 06:43:33;;;;;;;;;;;8.80;99.90;;;;;;5072569;28;19924;-67
2022/04/25 06:45:59;;;;;;;;;;;7.80;99.90;;;;;;5073007;28;19928;-70
2022/04/25 06:48:24;;;;;;;;;;;8.60;99.90;;;;;;5057645;28;19929;-70
2022/04/25 06:50:50;;;;;;;;;;;7.50;99.90;;;;;;5055187;28;19931;-71
2022/04/25 06:53:15;;;;;;;;;;;7.50;99.90;;;;;;5061165;28;19936;-70
2022/04/25 06:55:41;;;;;;;;;;;8.30;99.90;;;;;;5068751;28;19925;-70
2022/04/25 06:58:06;;;;;;;;;;;8.00;99.90;;;;;;5073219;28;19924;-71
2022/04/25 07:00:32;;;;;;;;;;;7.60;99.90;;;;;;5072244;28;19931;-71
2022/04/25 07:02:59;;;;;;;;;;;7.50;99.90;;;;;;5076151;28;20019;-69
2022/04/25 07:05:24;;;;;;;;;;;7.50;99.90;;;;;;5074212;28;19924;-71
2022/04/25 07:07:51;;;;;;;;;;;7.60;99.90;;;;;;5059941;28;19932;-69
2022/04/25 07:10:17;;;;;;;;;;;7.80;99.90;;;;;;5056955;28;19987;-70
2022/04/25 07:12:42;;;;;;;;;;;7.50;99.90;;;;;;5069536;28;19951;-72
2022/04/25 07:15:08;;;;;;;;;;;7.50;99.90;;;;;;5073661;28;19928;-68
2022/04/25 07:17:34;;;;;;;;;;;7.50;99.90;;;;;;5072298;28;19928;-69
2022/04/25 07:19:59;;;;;;;;;;;7.50;99.90;;;;;;5076013;28;19925;-69
2022/04/25 07:30:38;;;;;;;;;;;8.10;99.90;;;;;;5067262;28;20011;-69
2022/04/25 07:33:03;;;;;;;;;;;7.50;99.90;;;;;;5069437;28;20009;-71
2022/04/25 07:35:29;;;;;;;;;;;7.60;99.90;;;;;;5060933;28;19932;-70
2022/04/25 07:37:57;;;;;;;;;;;7.60;99.90;;;;;;5056691;28;19932;-71
2022/04/25 07:40:23;;;;;;;;;;;8.30;99.90;;;;;;5073867;28;19924;-68
2022/04/25 07:42:49;;;;;;;;;;;7.50;99.90;;;;;;5074388;28;19931;-66
2022/04/25 07:45:14;;;;;;;;;;;7.60;99.90;;;;;;5074989;28;19924;-69
2022/04/25 07:47:43;;;;;;;;;;;7.60;99.90;;;;;;5076373;28;20011;-70
2022/04/25 07:50:23;;;;;;;;;;;8.40;99.90;;;;;;5076188;28;20020;-69
2022/04/25 07:52:49;;;;;;;;;;;7.60;99.90;;;;;;5075464;28;19970;-68
2022/04/25 07:55:16;;;;;;;;;;;7.70;99.90;;;;;;5076330;28;20014;-69
2022/04/25 07:57:41;;;;;;;;;;;7.70;99.90;;;;;;5076163;28;19930;-69
2022/04/25 08:00:07;;;;;;;;;;;7.70;99.90;;;;;;5076343;28;20271;-70
2022/04/25 08:02:33;;;;;;;;;;;7.60;99.90;;;;;;5075844;28;19925;-68
2022/04/25 08:04:59;;;;;;;;;;;7.60;99.90;;;;;;5076145;28;19924;-69
2022/04/25 08:07:24;;;;;;;;;;;7.80;99.90;;;;;;5075281;28;19931;-68
2022/04/25 08:09:50;;;;;;;;;;;8.20;99.90;;;;;;5073774;28;19964;-68
2022/04/25 08:18:02;;;;;;;;;;;7.60;99.90;;;;;;5075918;28;19930;-68
2022/04/25 08:20:29;;;;;;;;;;;7.60;99.90;;;;;;5075850;28;19924;-68
2022/04/25 08:22:58;;;;;;;;;;;7.60;99.90;;;;;;5075706;28;19924;-68
2022/04/25 08:25:23;;;;;;;;;;;7.60;99.90;;;;;;5075736;28;19925;-70
2022/04/25 08:27:49;;;;;;;;;;;7.80;99.90;;;;;;5074592;28;20028;-69
2022/04/25 08:30:14;;;;;;;;;;;7.60;99.90;;;;;;5075826;28;19954;-69
2022/04/25 08:32:40;;;;;;;;;;;9.00;99.90;;;;;;5075725;28;19924;-69
2022/04/25 08:35:06;;;;;;;;;;;7.70;99.90;;;;;;5071453;28;19935;-68
2022/04/25 08:37:32;;;;;;;;;;;7.70;99.90;;;;;;5074307;28;19924;-68
2022/04/25 08:39:58;;;;;;;;;;;7.80;99.90;;;;;;5072210;28;19971;-70
2022/04/25 08:42:24;;;;;;;;;;;7.80;99.90;;;;;;5066881;28;19963;-69
2022/04/25 08:44:51;;;;;;;;;;;7.90;99.90;;;;;;5070566;28;19924;-70
2022/04/25 08:47:19;;;;;;;;;;;8.70;99.90;;;;;;5054539;28;19925;-71
2022/04/25 08:49:45;;;;;;;;;;;8.20;99.90;;;;;;5061621;28;20046;-69
2022/04/25 08:52:11;;;;;;;;;;;8.10;99.90;;;;;;5074309;28;20386;-71
2022/04/25 08:54:37;;;;;;;;;;;8.20;99.90;;;;;;5107462;28;19924;-70
2022/04/25 08:57:03;;;;;;;;;;;8.30;99.90;;;;;;5074916;28;20029;-71
2022/04/25 08:59:30;;;;;;;;;;;8.30;99.90;;;;;;5074925;28;20299;-71
2022/04/25 09:01:56;;;;;;;;;;;8.40;99.90;;;;;;5074705;28;20294;-70
2022/04/25 09:04:22;;;;;;;;;;;8.40;99.90;;;;;;5074882;28;19928;-75
2022/04/25 09:06:48;;;;;;;;;;;8.50;99.90;;;;;;5074956;28;20316;-70
2022/04/25 09:09:14;;;;;;;;;;;8.60;99.90;;;;;;5074918;28;19928;-71
2022/04/25 09:14:24;;;;;;;;;;;9.60;99.90;;;;;;5074895;28;19931;-72
2022/04/25 09:16:49;;;;;;;;;;;9.20;99.90;;;;;;5074775;28;19924;-71
2022/04/25 09:19:15;;;;;;;;;;;8.70;99.90;;;;;;5074725;28;19928;-70
2022/04/25 09:21:41;;;;;;;;;;;8.80;99.90;;;;;;5074104;28;19925;-71
2022/04/25 09:24:25;;;;;;;;;;;9.10;99.90;;;;;;5074839;28;19943;-70
2022/04/25 09:26:52;;;;;;;;;;;9.00;99.90;;;;;;5074700;28;20283;-71
2022/04/25 09:29:29;;;;;;;;;;;9.20;99.90;;;;;;5073876;28;20037;-70
2022/04/25 09:31:57;;;;;;;;;;;9.20;99.90;;;;;;5072851;28;20364;-71
2022/04/25 09:37:08;;;;;;;;;;;9.30;99.90;;;;;;5073905;28;20379;-71
2022/04/25 09:39:35;;;;;;;;;;;9.30;99.90;;;;;;5073969;28;19924;-71
2022/04/25 09:42:02;;;;;;;;;;;9.40;99.90;;;;;;5073906;28;19932;-68
2022/04/25 09:44:43;;;;;;;;;;;9.50;99.90;;;;;;5074044;28;19924;-70
2022/04/25 09:47:09;;;;;;;;;;;9.60;99.90;;;;;;5073913;28;19925;-71
2022/04/25 09:49:35;;;;;;;;;;;9.70;99.90;;;;;;5073807;28;19924;-70
2022/04/25 09:52:02;;;;;;;;;;;9.70;99.90;;;;;;5073134;28;19924;-69
2022/04/25 09:54:30;;;;;;;;;;;9.80;99.90;;;;;;5073940;28;19928;-71
2022/04/25 09:56:56;;;;;;;;;;;9.80;99.90;;;;;;5073712;28;19935;-72
2022/04/25 09:59:23;;;;;;;;;;;9.80;99.90;;;;;;5073670;28;19924;-71
2022/04/25 10:02:04;;;;;;;;;;;9.90;99.90;;;;;;5071763;28;20135;-69
2022/04/25 10:04:37;;;;;;;;;;;9.90;99.90;;;;;;5073387;28;19925;-71
2022/04/25 10:07:04;;;;;;;;;;;10.00;99.90;;;;;;5073708;28;20291;-72
2022/04/25 10:09:32;;;;;;;;;;;10.10;99.90;;;;;;5073241;28;20018;-70
2022/04/25 10:12:00;;;;;;;;;;;10.10;99.90;;;;;;5073081;28;19936;-69
2022/04/25 10:14:27;;;;;;;;;;;10.30;99.90;;;;;;5072943;28;20392;-70
2022/04/25 10:16:56;;;;;;;;;;;10.40;99.90;;;;;;5067903;28;19990;-70
2022/04/25 10:19:26;;;;;;;;;;;10.60;99.90;;;;;;5073333;28;19931;-70
2022/04/25 10:21:52;;;;;;;;;;;10.70;99.90;;;;;;5073719;28;19933;-70
2022/04/25 10:24:19;;;;;;;;;;;10.80;99.90;;;;;;5073414;28;19931;-70
2022/04/25 10:26:49;;;;;;;;;;;10.80;99.90;;;;;;5073471;28;19932;-71
2022/04/25 10:29:34;;;;;;;;;;;10.80;99.90;;;;;;5073302;28;20373;-71
2022/04/25 10:32:02;;;;;;;;;;;10.80;99.90;;;;;;5072772;28;20002;-72
2022/04/25 10:34:45;;;;;;;;;;;10.90;99.90;;;;;;5073401;28;19931;-70
2022/04/25 10:37:30;;;;;;;;;;;10.90;99.90;;;;;;5073370;28;19924;-70
2022/04/25 10:39:56;;;;;;;;;;;11.00;99.90;;;;;;5073315;28;19928;-71
2022/04/25 10:45:09;;;;;;;;;;;11.20;99.90;;;;;;5072438;28;19925;-70
2022/04/25 10:47:36;;;;;;;;;;;11.30;99.90;;;;;;5073306;28;19924;-70
2022/04/25 10:50:04;;;;;;;;;;;11.30;99.90;;;;;;5073170;28;20027;-71
2022/04/25 10:52:43;;;;;;;;;;;11.40;99.90;;;;;;5072901;28;19925;-70
2022/04/25 10:55:10;;;;;;;;;;;11.40;99.90;;;;;;5073344;28;20354;-71
2022/04/25 10:57:37;;;;;;;;;;;11.50;99.90;;;;;;5071895;28;19929;-70
2022/04/25 11:00:24;;;;;;;;;;;11.60;99.90;;;;;;5072933;28;19924;-70
2022/04/25 11:03:07;;;;;;;;;;;11.70;99.90;;;;;;5073041;28;19924;-71
2022/04/25 11:05:34;;;;;;;;;;;11.70;99.90;;;;;;5072791;28;19978;-71
2022/04/25 11:08:16;;;;;;;;;;;11.90;99.90;;;;;;5072976;28;20334;-71
2022/04/25 11:10:44;;;;;;;;;;;12.00;99.90;;;;;;5073071;28;20400;-73
2022/04/25 11:13:12;;;;;;;;;;;12.20;99.90;;;;;;5073004;28;19924;-70
2022/04/25 11:15:40;;;;;;;;;;;12.30;99.90;;;;;;5072906;28;19931;-70
2022/04/25 11:18:34;;;;;;;;;;;12.50;99.90;;;;;;5072771;28;20273;-72
2022/04/25 11:21:07;;;;;;;;;;;12.60;99.90;;;;;;5072576;28;20011;-72
2022/04/25 11:23:34;;;;;;;;;;;12.60;99.90;;;;;;5072579;28;19925;-71
2022/04/25 11:26:04;;;;;;;;;;;12.60;99.90;;;;;;5072821;28;19924;-72
2022/04/25 11:28:33;;;;;;;;;;;12.70;99.90;;;;;;5071683;28;19970;-70
2022/04/25 11:31:22;;;;;;;;;;;12.70;99.90;;;;;;5072793;28;19982;-71
2022/04/25 11:33:49;;;;;;;;;;;12.80;99.90;;;;;;5030661;28;19925;-70
2022/04/25 11:36:18;;;;;;;;;;;12.80;99.90;;;;;;5030564;28;20454;-72
2022/04/25 11:41:31;;;;;;;;;;;13.00;99.90;;;;;;5030627;28;20299;-69
2022/04/25 11:43:58;;;;;;;;;;;13.00;99.90;;;;;;5032591;28;19996;-70
2022/04/25 11:46:25;;;;;;;;;;;13.00;99.90;;;;;;5017923;28;19932;-72
2022/04/25 11:48:53;;;;;;;;;;;13.00;99.90;;;;;;5017528;28;19925;-69
2022/04/25 11:51:25;;;;;;;;;;;13.00;99.90;;;;;;5033879;28;19932;-71
2022/04/25 11:53:54;;;;;;;;;;;12.90;99.90;;;;;;5033852;28;19925;-70
2022/04/25 11:56:21;;;;;;;;;;;13.00;99.90;;;;;;5033895;28;20012;-72
2022/04/25 11:58:48;;;;;;;;;;;13.00;99.90;;;;;;5033571;28;20440;-70
2022/04/25 12:01:30;;;;;;;;;;;13.10;99.90;;;;;;5017148;28;19965;-70
2022/04/25 12:04:15;;;;;;;;;;;13.10;99.90;;;;;;5033706;28;20332;-71
2022/04/25 12:06:56;;;;;;;;;;;13.10;99.90;;;;;;5033634;28;20403;-72
2022/04/25 12:17:39;;;;;;;;;;;12.90;99.90;;;;;;5075723;28;20023;-70
2022/04/25 12:20:10;;;;;;;;;;;12.90;99.90;;;;;;5075405;28;19925;-72
2022/04/25 12:22:37;;;;;;;;;;;12.90;99.90;;;;;;5075646;28;19935;-72
2022/04/25 12:25:17;;;;;;;;;;;13.70;99.90;;;;;;5075406;28;19925;-70
2022/04/25 12:27:59;;;;;;;;;;;12.90;99.90;;;;;;5057910;28;19930;-71
2022/04/25 12:30:25;;;;;;;;;;;12.90;99.90;;;;;;5074599;28;19931;-69
2022/04/25 12:33:04;;;;;;;;;;;12.90;99.90;;;;;;5075455;28;19931;-71
2022/04/25 12:35:30;;;;;;;;;;;12.90;99.90;;;;;;5074940;28;19924;-71
2022/04/25 12:37:56;;;;;;;;;;;12.90;99.90;;;;;;5075179;28;19924;-69
2022/04/25 12:40:22;;;;;;;;;;;12.90;99.90;;;;;;5075377;28;19924;-72
2022/04/25 12:42:54;;;;;;;;;;;12.90;99.90;;;;;;5074417;28;20023;-71
2022/04/25 12:45:24;;;;;;;;;;;12.90;99.90;;;;;;5075144;28;19931;-71
2022/04/25 12:47:57;;;;;;;;;;;12.90;99.90;;;;;;5075141;28;19924;-72
2022/04/25 12:50:44;;;;;;;;;;;12.90;99.90;;;;;;5074871;28;20333;-72
2022/04/25 12:53:11;;;;;;;;;;;12.90;99.90;;;;;;5074027;28;19930;-70
2022/04/25 12:55:48;;;;;;;;;;;12.90;99.90;;;;;;5074227;28;19924;-72
2022/04/25 12:58:14;;;;;;;;;;;12.90;99.90;;;;;;5074698;28;19925;-72
2022/04/25 13:00:43;;;;;;;;;;;12.90;99.90;;;;;;5074579;28;19986;-71
2022/04/25 13:03:11;;;;;;;;;;;12.90;99.90;;;;;;5108094;28;19932;-71
2022/04/25 13:05:38;;;;;;;;;;;12.90;99.90;;;;;;5073762;28;19978;-70
2022/04/25 13:08:04;;;;;;;;;;;12.80;99.90;;;;;;5074762;28;19970;-71
2022/04/25 13:10:30;;;;;;;;;;;12.80;99.90;;;;;;5074685;28;19931;-72
2022/04/25 13:12:57;;;;;;;;;;;12.80;99.90;;;;;;5056816;28;20012;-72
2022/04/25 13:15:30;;;;;;;;;;;12.80;99.90;;;;;;5074498;28;19928;-72
2022/04/25 13:17:56;;;;;;;;;;;12.80;99.90;;;;;;5073484;28;19931;-71
2022/04/25 13:20:25;;;;;;;;;;;12.80;99.90;;;;;;5074297;28;19974;-70
2022/04/25 13:22:51;;;;;;;;;;;12.80;99.90;;;;;;5073345;28;20307;-71
2022/04/25 13:25:22;;;;;;;;;;;12.80;99.90;;;;;;5074413;28;19929;-71
2022/04/25 13:27:48;;;;;;;;;;;12.80;99.90;;;;;;5074213;28;20363;-70
2022/04/25 13:30:16;;;;;;;;;;;12.80;99.90;;;;;;5074262;28;19986;-72
2022/04/25 13:32:45;;;;;;;;;;;12.80;99.90;;;;;;5074337;28;19924;-69
2022/04/25 13:35:12;;;;;;;;;;;12.80;99.90;;;;;;5072873;28;20463;-71
2022/04/25 13:37:38;;;;;;;;;;;12.80;99.90;;;;;;5072960;28;20410;-70
2022/04/25 13:40:04;;;;;;;;;;;12.80;99.90;;;;;;5074167;28;19924;-71
2022/04/25 13:42:30;;;;;;;;;;;12.80;99.90;;;;;;5074028;28;19924;-72
2022/04/25 13:44:56;;;;;;;;;;;12.80;99.90;;;;;;5073837;28;19935;-71
2022/04/25 13:47:23;;;;;;;;;;;12.80;99.90;;;;;;5074181;28;20296;-71
2022/04/25 13:49:48;;;;;;;;;;;12.80;99.90;;;;;;5073167;28;19978;-72
2022/04/25 13:52:14;;;;;;;;;;;12.80;99.90;;;;;;5073968;28;19928;-71
2022/04/25 13:54:40;;;;;;;;;;;12.80;99.90;;;;;;5073928;28;20407;-71
2022/04/25 13:57:05;;;;;;;;;;;12.70;99.90;;;;;;5055837;28;19975;-72
2022/04/25 13:59:31;;;;;;;;;;;12.70;99.90;;;;;;5073592;28;20263;-72
2022/04/25 14:01:56;;;;;;;;;;;12.70;99.90;;;;;;5074021;28;20043;-70
2022/04/25 14:04:23;;;;;;;;;;;12.70;99.90;;;;;;5073771;28;20380;-71
2022/04/25 14:06:49;;;;;;;;;;;12.60;99.90;;;;;;5072900;28;19932;-71
2022/04/25 14:09:14;;;;;;;;;;;12.60;99.90;;;;;;5055900;28;20302;-72
2022/04/25 14:11:40;;;;;;;;;;;12.60;99.90;;;;;;5056263;28;19932;-70
2022/04/25 14:14:06;;;;;;;;;;;12.60;99.90;;;;;;5073697;28;20310;-70
2022/04/25 14:16:32;;;;;;;;;;;12.60;99.90;;;;;;5072548;28;20287;-72
2022/04/25 14:18:57;;;;;;;;;;;12.60;99.90;;;;;;5073694;28;19924;-69
2022/04/25 14:21:23;;;;;;;;;;;12.60;99.90;;;;;;5073574;28;20344;-73
2022/04/25 14:23:49;;;;;;;;;;;12.60;99.90;;;;;;5073454;28;19931;-72
2022/04/25 14:26:14;;;;;;;;;;;12.90;99.90;;;;;;5055980;28;20398;-71
2022/04/25 14:28:40;;;;;;;;;;;12.60;99.90;;;;;;5072431;28;20303;-72
2022/04/25 14:31:06;;;;;;;;;;;12.60;99.90;;;;;;5073372;28;19929;-72
2022/04/25 14:33:31;;;;;;;;;;;12.60;99.90;;;;;;5073646;28;19994;-72
2022/04/25 14:35:57;;;;;;;;;;;12.70;99.90;;;;;;5073293;28;19931;-70
2022/04/25 14:38:23;;;;;;;;;;;12.70;99.90;;;;;;5072109;28;19925;-72
2022/04/25 14:40:54;;;;;;;;;;;12.70;99.90;;;;;;5073601;28;19928;-72
2022/04/25 14:43:20;;;;;;;;;;;12.60;99.90;;;;;;5073405;28;19931;-71
2022/04/25 14:45:47;;;;;;;;;;;12.80;99.90;;;;;;5072428;28;19972;-71
2022/04/25 14:48:13;;;;;;;;;;;12.80;99.90;;;;;;5071288;28;19924;-72
2022/04/25 14:56:07;;;;;;;;;;;12.90;99.90;;;;;;5073352;28;19930;-71
2022/04/25 14:58:33;;;;;;;;;;;12.90;99.90;;;;;;5071717;28;19928;-71
2022/04/25 15:00:58;;;;;;;;;;;12.90;99.90;;;;;;5073555;28;20325;-71
2022/04/25 15:03:24;;;;;;;;;;;12.90;99.90;;;;;;5072449;28;19925;-71
2022/04/25 15:05:49;;;;;;;;;;;13.00;99.90;;;;;;5073171;28;20055;-72
2022/04/25 15:08:15;;;;;;;;;;;13.00;99.90;;;;;;5073196;28;19931;-70
2022/04/25 15:10:41;;;;;;;;;;;13.00;99.90;;;;;;5071804;28;20019;-72
2022/04/25 15:13:08;;;;;;;;;;;13.00;99.90;;;;;;5073166;28;20018;-71
2022/04/25 15:15:35;;;;;;;;;;;13.00;99.90;;;;;;5072374;28;19929;-71